sensor_id;sensor_type;location;lat;lon;timestamp;P1;durP1;ratioP1;P2;durP2;ratioP2
76380;SDS011;65202;52.520;10.528;2023-07-24T00:01:55;3.60;;;2.20;;
76380;SDS011;65202;52.520;10.528;2023-07-24T00:04:23;6.05;;;2.20;;
76380;SDS011;65202;52.520;10.528;2023-07-24T00:06:50;2.03;;;1.80;;
76380;SDS011;65202;52.520;10.528;2023-07-24T00:09:17;5.45;;;1.88;;
76380;SDS011;65202;52.520;10.528;2023-07-24T00:11:44;2.03;;;1.83;;
76380;SDS011;65202;52.520;10.528;2023-07-24T00:14:11;1.83;;;1.65;;
76380;SDS011;65202;52.520;10.528;2023-07-24T00:16:39;2.50;;;1.73;;
76380;SDS011;65202;52.520;10.528;2023-07-24T00:19:06;2.20;;;1.55;;
76380;SDS011;65202;52.520;10.528;2023-07-24T00:21:33;1.90;;;1.70;;
76380;SDS011;65202;52.520;10.528;2023-07-24T00:24:00;3.40;;;1.88;;
76380;SDS011;65202;52.520;10.528;2023-07-24T00:26:28;2.17;;;1.63;;
76380;SDS011;65202;52.520;10.528;2023-07-24T00:28:55;2.10;;;1.77;;
76380;SDS011;65202;52.520;10.528;2023-07-24T00:31:22;1.80;;;1.45;;
76380;SDS011;65202;52.520;10.528;2023-07-24T00:33:50;2.50;;;1.70;;
76380;SDS011;65202;52.520;10.528;2023-07-24T00:36:17;3.70;;;1.83;;
76380;SDS011;65202;52.520;10.528;2023-07-24T00:38:44;2.65;;;1.58;;
76380;SDS011;65202;52.520;10.528;2023-07-24T00:41:11;2.53;;;1.60;;
76380;SDS011;65202;52.520;10.528;2023-07-24T00:43:38;2.65;;;1.45;;
76380;SDS011;65202;52.520;10.528;2023-07-24T00:46:06;1.67;;;1.58;;
76380;SDS011;65202;52.520;10.528;2023-07-24T00:48:33;4.60;;;1.70;;
76380;SDS011;65202;52.520;10.528;2023-07-24T00:51:00;3.60;;;1.70;;
76380;SDS011;65202;52.520;10.528;2023-07-24T00:53:28;1.50;;;1.40;;
76380;SDS011;65202;52.520;10.528;2023-07-24T00:55:56;2.55;;;1.55;;
76380;SDS011;65202;52.520;10.528;2023-07-24T00:58:23;2.50;;;1.52;;
76380;SDS011;65202;52.520;10.528;2023-07-24T01:00:51;2.97;;;1.60;;
76380;SDS011;65202;52.520;10.528;2023-07-24T01:03:18;2.00;;;1.80;;
76380;SDS011;65202;52.520;10.528;2023-07-24T01:05:46;1.80;;;1.70;;
76380;SDS011;65202;52.520;10.528;2023-07-24T01:08:13;3.58;;;1.60;;
76380;SDS011;65202;52.520;10.528;2023-07-24T01:10:40;2.15;;;1.50;;
76380;SDS011;65202;52.520;10.528;2023-07-24T01:13:10;2.47;;;1.70;;
76380;SDS011;65202;52.520;10.528;2023-07-24T01:15:50;2.47;;;1.50;;
76380;SDS011;65202;52.520;10.528;2023-07-24T01:18:26;2.00;;;1.70;;
76380;SDS011;65202;52.520;10.528;2023-07-24T01:20:57;5.65;;;1.70;;
76380;SDS011;65202;52.520;10.528;2023-07-24T01:26:52;2.80;;;1.88;;
76380;SDS011;65202;52.520;10.528;2023-07-24T01:29:19;2.20;;;1.50;;
76380;SDS011;65202;52.520;10.528;2023-07-24T01:31:46;2.38;;;1.70;;
76380;SDS011;65202;52.520;10.528;2023-07-24T01:34:14;2.20;;;1.50;;
76380;SDS011;65202;52.520;10.528;2023-07-24T01:36:41;5.93;;;2.08;;
76380;SDS011;65202;52.520;10.528;2023-07-24T01:39:08;1.60;;;1.50;;
76380;SDS011;65202;52.520;10.528;2023-07-24T01:41:37;4.55;;;2.25;;
76380;SDS011;65202;52.520;10.528;2023-07-24T01:44:05;3.33;;;2.00;;
76380;SDS011;65202;52.520;10.528;2023-07-24T01:46:32;3.58;;;1.67;;
76380;SDS011;65202;52.520;10.528;2023-07-24T01:49:00;3.70;;;1.73;;
76380;SDS011;65202;52.520;10.528;2023-07-24T01:51:27;3.60;;;1.60;;
76380;SDS011;65202;52.520;10.528;2023-07-24T01:53:54;1.77;;;1.67;;
76380;SDS011;65202;52.520;10.528;2023-07-24T01:56:21;1.95;;;1.60;;
76380;SDS011;65202;52.520;10.528;2023-07-24T01:58:49;2.22;;;1.70;;
76380;SDS011;65202;52.520;10.528;2023-07-24T02:01:16;2.78;;;1.75;;
76380;SDS011;65202;52.520;10.528;2023-07-24T02:03:43;3.25;;;1.90;;
76380;SDS011;65202;52.520;10.528;2023-07-24T02:06:10;5.05;;;1.90;;
76380;SDS011;65202;52.520;10.528;2023-07-24T02:08:38;2.10;;;1.88;;
76380;SDS011;65202;52.520;10.528;2023-07-24T02:11:05;3.05;;;2.10;;
76380;SDS011;65202;52.520;10.528;2023-07-24T02:13:32;4.80;;;1.83;;
76380;SDS011;65202;52.520;10.528;2023-07-24T02:15:59;4.82;;;2.20;;
76380;SDS011;65202;52.520;10.528;2023-07-24T02:18:27;2.00;;;1.80;;
76380;SDS011;65202;52.520;10.528;2023-07-24T02:20:54;2.30;;;2.10;;
76380;SDS011;65202;52.520;10.528;2023-07-24T02:23:21;2.03;;;1.90;;
76380;SDS011;65202;52.520;10.528;2023-07-24T02:25:51;4.68;;;2.20;;
76380;SDS011;65202;52.520;10.528;2023-07-24T02:28:20;3.28;;;2.25;;
76380;SDS011;65202;52.520;10.528;2023-07-24T02:30:47;4.05;;;2.30;;
76380;SDS011;65202;52.520;10.528;2023-07-24T02:33:15;2.35;;;2.15;;
76380;SDS011;65202;52.520;10.528;2023-07-24T02:35:42;3.15;;;1.95;;
76380;SDS011;65202;52.520;10.528;2023-07-24T02:38:09;2.30;;;2.10;;
76380;SDS011;65202;52.520;10.528;2023-07-24T02:40:36;2.85;;;2.10;;
76380;SDS011;65202;52.520;10.528;2023-07-24T02:43:03;3.67;;;1.90;;
76380;SDS011;65202;52.520;10.528;2023-07-24T02:45:33;2.80;;;2.10;;
76380;SDS011;65202;52.520;10.528;2023-07-24T02:48:01;3.78;;;2.20;;
76380;SDS011;65202;52.520;10.528;2023-07-24T02:50:29;3.33;;;2.20;;
76380;SDS011;65202;52.520;10.528;2023-07-24T02:52:56;3.55;;;2.15;;
76380;SDS011;65202;52.520;10.528;2023-07-24T02:55:24;2.10;;;1.90;;
76380;SDS011;65202;52.520;10.528;2023-07-24T02:57:51;2.67;;;2.00;;
76380;SDS011;65202;52.520;10.528;2023-07-24T03:00:18;3.22;;;2.28;;
76380;SDS011;65202;52.520;10.528;2023-07-24T03:02:45;3.33;;;2.03;;
76380;SDS011;65202;52.520;10.528;2023-07-24T03:05:13;2.50;;;2.30;;
76380;SDS011;65202;52.520;10.528;2023-07-24T03:07:40;4.07;;;2.33;;
76380;SDS011;65202;52.520;10.528;2023-07-24T03:10:07;3.10;;;2.10;;
76380;SDS011;65202;52.520;10.528;2023-07-24T03:12:35;3.45;;;2.40;;
76380;SDS011;65202;52.520;10.528;2023-07-24T03:15:02;2.08;;;1.90;;
76380;SDS011;65202;52.520;10.528;2023-07-24T03:17:30;2.55;;;2.35;;
76380;SDS011;65202;52.520;10.528;2023-07-24T03:19:57;2.67;;;2.33;;
76380;SDS011;65202;52.520;10.528;2023-07-24T03:22:25;2.55;;;2.25;;
76380;SDS011;65202;52.520;10.528;2023-07-24T03:24:53;3.85;;;2.50;;
76380;SDS011;65202;52.520;10.528;2023-07-24T03:27:20;3.88;;;2.47;;
76380;SDS011;65202;52.520;10.528;2023-07-24T03:29:47;3.20;;;2.40;;
76380;SDS011;65202;52.520;10.528;2023-07-24T03:32:15;3.08;;;2.50;;
76380;SDS011;65202;52.520;10.528;2023-07-24T03:34:42;3.25;;;2.50;;
76380;SDS011;65202;52.520;10.528;2023-07-24T03:37:09;2.67;;;2.35;;
76380;SDS011;65202;52.520;10.528;2023-07-24T03:39:36;2.53;;;2.22;;
76380;SDS011;65202;52.520;10.528;2023-07-24T03:42:04;2.45;;;2.20;;
76380;SDS011;65202;52.520;10.528;2023-07-24T03:44:31;3.30;;;2.30;;
76380;SDS011;65202;52.520;10.528;2023-07-24T03:46:58;2.75;;;2.33;;
76380;SDS011;65202;52.520;10.528;2023-07-24T03:49:26;2.20;;;2.00;;
76380;SDS011;65202;52.520;10.528;2023-07-24T03:51:53;4.75;;;2.25;;
76380;SDS011;65202;52.520;10.528;2023-07-24T03:54:20;3.33;;;2.35;;
76380;SDS011;65202;52.520;10.528;2023-07-24T03:56:48;2.92;;;2.13;;
76380;SDS011;65202;52.520;10.528;2023-07-24T03:59:15;3.38;;;2.40;;
76380;SDS011;65202;52.520;10.528;2023-07-24T04:01:42;5.10;;;2.10;;
76380;SDS011;65202;52.520;10.528;2023-07-24T04:04:09;3.08;;;2.40;;
76380;SDS011;65202;52.520;10.528;2023-07-24T04:06:36;2.95;;;2.25;;
76380;SDS011;65202;52.520;10.528;2023-07-24T04:09:04;2.10;;;1.90;;
76380;SDS011;65202;52.520;10.528;2023-07-24T04:11:31;2.30;;;2.10;;
76380;SDS011;65202;52.520;10.528;2023-07-24T04:13:58;3.58;;;2.20;;
76380;SDS011;65202;52.520;10.528;2023-07-24T04:16:25;2.65;;;2.42;;
76380;SDS011;65202;52.520;10.528;2023-07-24T04:18:55;3.63;;;2.10;;
76380;SDS011;65202;52.520;10.528;2023-07-24T04:21:22;5.75;;;2.15;;
76380;SDS011;65202;52.520;10.528;2023-07-24T04:23:50;5.45;;;2.05;;
76380;SDS011;65202;52.520;10.528;2023-07-24T04:26:17;3.58;;;2.20;;
76380;SDS011;65202;52.520;10.528;2023-07-24T04:28:44;2.65;;;2.30;;
76380;SDS011;65202;52.520;10.528;2023-07-24T04:31:12;2.10;;;1.90;;
76380;SDS011;65202;52.520;10.528;2023-07-24T04:33:39;2.30;;;2.00;;
76380;SDS011;65202;52.520;10.528;2023-07-24T04:36:06;3.63;;;1.90;;
76380;SDS011;65202;52.520;10.528;2023-07-24T04:38:34;2.40;;;2.13;;
76380;SDS011;65202;52.520;10.528;2023-07-24T04:41:01;2.38;;;2.17;;
76380;SDS011;65202;52.520;10.528;2023-07-24T04:43:29;4.32;;;2.10;;
76380;SDS011;65202;52.520;10.528;2023-07-24T04:45:56;3.33;;;1.85;;
76380;SDS011;65202;52.520;10.528;2023-07-24T04:48:24;2.53;;;2.15;;
76380;SDS011;65202;52.520;10.528;2023-07-24T04:50:54;3.28;;;2.30;;
76380;SDS011;65202;52.520;10.528;2023-07-24T04:53:23;3.13;;;2.20;;
76380;SDS011;65202;52.520;10.528;2023-07-24T04:55:50;2.33;;;2.00;;
76380;SDS011;65202;52.520;10.528;2023-07-24T04:58:17;4.22;;;1.85;;
76380;SDS011;65202;52.520;10.528;2023-07-24T05:00:44;4.43;;;2.30;;
76380;SDS011;65202;52.520;10.528;2023-07-24T05:03:12;2.88;;;2.20;;
76380;SDS011;65202;52.520;10.528;2023-07-24T05:05:39;7.72;;;2.08;;
76380;SDS011;65202;52.520;10.528;2023-07-24T05:08:11;2.85;;;2.05;;
76380;SDS011;65202;52.520;10.528;2023-07-24T05:10:38;3.70;;;2.00;;
76380;SDS011;65202;52.520;10.528;2023-07-24T05:13:06;2.85;;;1.90;;
76380;SDS011;65202;52.520;10.528;2023-07-24T05:15:33;3.58;;;2.15;;
76380;SDS011;65202;52.520;10.528;2023-07-24T05:18:00;5.05;;;2.20;;
76380;SDS011;65202;52.520;10.528;2023-07-24T05:20:27;2.95;;;2.13;;
76380;SDS011;65202;52.520;10.528;2023-07-24T05:22:55;2.30;;;2.00;;
76380;SDS011;65202;52.520;10.528;2023-07-24T05:25:22;3.30;;;2.20;;
76380;SDS011;65202;52.520;10.528;2023-07-24T05:27:49;2.78;;;1.85;;
76380;SDS011;65202;52.520;10.528;2023-07-24T05:30:16;8.05;;;2.60;;
76380;SDS011;65202;52.520;10.528;2023-07-24T05:32:44;2.60;;;1.90;;
76380;SDS011;65202;52.520;10.528;2023-07-24T05:35:11;2.55;;;2.00;;
76380;SDS011;65202;52.520;10.528;2023-07-24T05:37:38;3.20;;;2.33;;
76380;SDS011;65202;52.520;10.528;2023-07-24T05:40:05;2.80;;;2.20;;
76380;SDS011;65202;52.520;10.528;2023-07-24T05:42:33;5.25;;;3.20;;
76380;SDS011;65202;52.520;10.528;2023-07-24T05:45:05;5.13;;;2.90;;
76380;SDS011;65202;52.520;10.528;2023-07-24T05:47:34;2.25;;;1.92;;
76380;SDS011;65202;52.520;10.528;2023-07-24T05:50:01;3.65;;;2.05;;
76380;SDS011;65202;52.520;10.528;2023-07-24T05:52:29;3.00;;;2.17;;
76380;SDS011;65202;52.520;10.528;2023-07-24T05:54:56;5.20;;;2.00;;
76380;SDS011;65202;52.520;10.528;2023-07-24T05:57:23;2.60;;;2.15;;
76380;SDS011;65202;52.520;10.528;2023-07-24T05:59:50;5.57;;;2.20;;
76380;SDS011;65202;52.520;10.528;2023-07-24T06:02:18;3.95;;;2.28;;
76380;SDS011;65202;52.520;10.528;2023-07-24T06:04:46;2.88;;;2.20;;
76380;SDS011;65202;52.520;10.528;2023-07-24T06:07:13;4.10;;;2.33;;
76380;SDS011;65202;52.520;10.528;2023-07-24T06:09:40;5.38;;;2.95;;
76380;SDS011;65202;52.520;10.528;2023-07-24T06:12:08;2.78;;;2.15;;
76380;SDS011;65202;52.520;10.528;2023-07-24T06:14:35;3.58;;;2.35;;
76380;SDS011;65202;52.520;10.528;2023-07-24T06:17:02;2.67;;;2.25;;
76380;SDS011;65202;52.520;10.528;2023-07-24T06:19:30;4.72;;;2.20;;
76380;SDS011;65202;52.520;10.528;2023-07-24T06:21:57;2.97;;;2.15;;
76380;SDS011;65202;52.520;10.528;2023-07-24T06:24:24;3.42;;;2.38;;
76380;SDS011;65202;52.520;10.528;2023-07-24T06:26:51;3.53;;;2.10;;
76380;SDS011;65202;52.520;10.528;2023-07-24T06:29:19;4.90;;;2.22;;
76380;SDS011;65202;52.520;10.528;2023-07-24T06:31:46;5.03;;;2.10;;
76380;SDS011;65202;52.520;10.528;2023-07-24T06:34:13;2.47;;;2.15;;
76380;SDS011;65202;52.520;10.528;2023-07-24T06:36:40;5.05;;;2.75;;
76380;SDS011;65202;52.520;10.528;2023-07-24T06:39:08;3.03;;;2.60;;
76380;SDS011;65202;52.520;10.528;2023-07-24T06:41:35;4.93;;;2.58;;
76380;SDS011;65202;52.520;10.528;2023-07-24T06:44:02;4.03;;;2.50;;
76380;SDS011;65202;52.520;10.528;2023-07-24T06:46:29;3.85;;;2.35;;
76380;SDS011;65202;52.520;10.528;2023-07-24T06:48:57;3.60;;;2.53;;
76380;SDS011;65202;52.520;10.528;2023-07-24T06:51:24;4.68;;;2.60;;
76380;SDS011;65202;52.520;10.528;2023-07-24T06:53:51;3.72;;;2.70;;
76380;SDS011;65202;52.520;10.528;2023-07-24T06:56:19;5.55;;;2.55;;
76380;SDS011;65202;52.520;10.528;2023-07-24T06:58:46;7.00;;;4.68;;
76380;SDS011;65202;52.520;10.528;2023-07-24T07:01:13;4.70;;;3.00;;
76380;SDS011;65202;52.520;10.528;2023-07-24T07:03:40;6.00;;;3.80;;
76380;SDS011;65202;52.520;10.528;2023-07-24T07:06:08;6.93;;;3.00;;
76380;SDS011;65202;52.520;10.528;2023-07-24T07:08:53;3.50;;;2.95;;
76380;SDS011;65202;52.520;10.528;2023-07-24T07:11:20;3.35;;;2.70;;
76380;SDS011;65202;52.520;10.528;2023-07-24T07:13:48;6.53;;;3.10;;
76380;SDS011;65202;52.520;10.528;2023-07-24T07:16:15;5.18;;;2.95;;
76380;SDS011;65202;52.520;10.528;2023-07-24T07:18:44;6.68;;;2.67;;
76380;SDS011;65202;52.520;10.528;2023-07-24T07:21:11;5.90;;;2.72;;
76380;SDS011;65202;52.520;10.528;2023-07-24T07:23:38;5.13;;;3.00;;
76380;SDS011;65202;52.520;10.528;2023-07-24T07:26:06;4.65;;;2.63;;
76380;SDS011;65202;52.520;10.528;2023-07-24T07:28:33;7.70;;;3.40;;
76380;SDS011;65202;52.520;10.528;2023-07-24T07:31:00;4.07;;;2.63;;
76380;SDS011;65202;52.520;10.528;2023-07-24T07:33:27;3.30;;;2.90;;
76380;SDS011;65202;52.520;10.528;2023-07-24T07:35:56;5.60;;;3.10;;
76380;SDS011;65202;52.520;10.528;2023-07-24T07:38:25;6.15;;;3.03;;
76380;SDS011;65202;52.520;10.528;2023-07-24T07:40:52;6.53;;;2.90;;
76380;SDS011;65202;52.520;10.528;2023-07-24T07:43:20;3.28;;;2.95;;
76380;SDS011;65202;52.520;10.528;2023-07-24T07:45:47;5.35;;;3.67;;
76380;SDS011;65202;52.520;10.528;2023-07-24T07:48:15;4.95;;;3.00;;
76380;SDS011;65202;52.520;10.528;2023-07-24T07:50:42;4.60;;;3.10;;
76380;SDS011;65202;52.520;10.528;2023-07-24T07:53:10;8.88;;;3.30;;
76380;SDS011;65202;52.520;10.528;2023-07-24T07:55:37;5.03;;;3.10;;
76380;SDS011;65202;52.520;10.528;2023-07-24T07:58:04;5.57;;;3.08;;
76380;SDS011;65202;52.520;10.528;2023-07-24T08:00:31;7.75;;;3.20;;
76380;SDS011;65202;52.520;10.528;2023-07-24T08:02:59;4.03;;;2.78;;
76380;SDS011;65202;52.520;10.528;2023-07-24T08:05:26;5.97;;;2.75;;
76380;SDS011;65202;52.520;10.528;2023-07-24T08:07:54;5.78;;;3.17;;
76380;SDS011;65202;52.520;10.528;2023-07-24T08:10:22;4.30;;;2.90;;
76380;SDS011;65202;52.520;10.528;2023-07-24T08:12:49;4.15;;;3.30;;
76380;SDS011;65202;52.520;10.528;2023-07-24T08:15:16;4.68;;;3.08;;
76380;SDS011;65202;52.520;10.528;2023-07-24T08:17:43;6.65;;;3.25;;
76380;SDS011;65202;52.520;10.528;2023-07-24T08:20:11;12.18;;;3.70;;
76380;SDS011;65202;52.520;10.528;2023-07-24T08:22:38;6.97;;;3.53;;
76380;SDS011;65202;52.520;10.528;2023-07-24T08:25:06;6.82;;;3.65;;
76380;SDS011;65202;52.520;10.528;2023-07-24T08:27:33;5.35;;;3.42;;
76380;SDS011;65202;52.520;10.528;2023-07-24T08:30:20;6.45;;;3.78;;
76380;SDS011;65202;52.520;10.528;2023-07-24T08:32:48;6.32;;;3.83;;
76380;SDS011;65202;52.520;10.528;2023-07-24T08:35:17;8.13;;;4.22;;
76380;SDS011;65202;52.520;10.528;2023-07-24T08:37:44;7.65;;;3.78;;
76380;SDS011;65202;52.520;10.528;2023-07-24T08:40:11;8.05;;;3.78;;
76380;SDS011;65202;52.520;10.528;2023-07-24T08:42:39;7.32;;;3.80;;
76380;SDS011;65202;52.520;10.528;2023-07-24T08:45:11;8.77;;;3.90;;
76380;SDS011;65202;52.520;10.528;2023-07-24T08:50:11;7.85;;;4.18;;
76380;SDS011;65202;52.520;10.528;2023-07-24T08:52:41;8.02;;;4.40;;
76380;SDS011;65202;52.520;10.528;2023-07-24T08:55:13;7.72;;;4.60;;
76380;SDS011;65202;52.520;10.528;2023-07-24T08:57:41;9.02;;;4.57;;
76380;SDS011;65202;52.520;10.528;2023-07-24T09:00:08;8.65;;;5.05;;
76380;SDS011;65202;52.520;10.528;2023-07-24T09:02:36;10.82;;;4.80;;
76380;SDS011;65202;52.520;10.528;2023-07-24T09:05:03;11.52;;;5.90;;
76380;SDS011;65202;52.520;10.528;2023-07-24T09:07:32;13.40;;;5.40;;
76380;SDS011;65202;52.520;10.528;2023-07-24T09:10:00;6.68;;;5.07;;
76380;SDS011;65202;52.520;10.528;2023-07-24T09:12:27;8.82;;;4.75;;
76380;SDS011;65202;52.520;10.528;2023-07-24T09:15:01;9.27;;;5.30;;
76380;SDS011;65202;52.520;10.528;2023-07-24T09:17:32;7.95;;;4.22;;
76380;SDS011;65202;52.520;10.528;2023-07-24T09:20:00;6.28;;;3.65;;
76380;SDS011;65202;52.520;10.528;2023-07-24T09:22:29;4.55;;;3.20;;
76380;SDS011;65202;52.520;10.528;2023-07-24T09:24:57;5.75;;;3.53;;
76380;SDS011;65202;52.520;10.528;2023-07-24T09:27:26;6.35;;;3.25;;
76380;SDS011;65202;52.520;10.528;2023-07-24T09:29:58;7.22;;;3.40;;
76380;SDS011;65202;52.520;10.528;2023-07-24T09:32:26;5.22;;;3.00;;
76380;SDS011;65202;52.520;10.528;2023-07-24T09:34:54;5.68;;;3.25;;
76380;SDS011;65202;52.520;10.528;2023-07-24T09:37:30;6.07;;;3.00;;
76380;SDS011;65202;52.520;10.528;2023-07-24T09:40:04;7.38;;;2.90;;
76380;SDS011;65202;52.520;10.528;2023-07-24T09:42:32;4.25;;;2.85;;
76380;SDS011;65202;52.520;10.528;2023-07-24T09:45:22;5.55;;;3.30;;
76380;SDS011;65202;52.520;10.528;2023-07-24T09:47:51;5.32;;;3.15;;
76380;SDS011;65202;52.520;10.528;2023-07-24T09:50:28;6.75;;;3.20;;
76380;SDS011;65202;52.520;10.528;2023-07-24T09:52:55;7.72;;;3.17;;
76380;SDS011;65202;52.520;10.528;2023-07-24T09:55:33;10.65;;;3.63;;
76380;SDS011;65202;52.520;10.528;2023-07-24T09:58:10;4.97;;;3.78;;
76380;SDS011;65202;52.520;10.528;2023-07-24T10:00:39;4.60;;;3.58;;
76380;SDS011;65202;52.520;10.528;2023-07-24T10:03:07;5.32;;;4.13;;
76380;SDS011;65202;52.520;10.528;2023-07-24T10:05:35;5.80;;;4.28;;
76380;SDS011;65202;52.520;10.528;2023-07-24T10:08:03;8.00;;;4.38;;
76380;SDS011;65202;52.520;10.528;2023-07-24T10:10:31;8.00;;;4.35;;
76380;SDS011;65202;52.520;10.528;2023-07-24T10:13:00;6.72;;;4.25;;
76380;SDS011;65202;52.520;10.528;2023-07-24T10:15:27;9.60;;;4.80;;
76380;SDS011;65202;52.520;10.528;2023-07-24T10:18:03;7.97;;;4.88;;
76380;SDS011;65202;52.520;10.528;2023-07-24T10:20:32;6.10;;;4.70;;
76380;SDS011;65202;52.520;10.528;2023-07-24T10:23:02;6.05;;;4.68;;
76380;SDS011;65202;52.520;10.528;2023-07-24T10:25:30;8.43;;;6.05;;
76380;SDS011;65202;52.520;10.528;2023-07-24T10:28:03;7.57;;;5.20;;
76380;SDS011;65202;52.520;10.528;2023-07-24T10:30:38;7.00;;;5.05;;
76380;SDS011;65202;52.520;10.528;2023-07-24T10:33:17;8.57;;;4.88;;
76380;SDS011;65202;52.520;10.528;2023-07-24T10:35:48;5.47;;;4.85;;
76380;SDS011;65202;52.520;10.528;2023-07-24T10:38:31;7.07;;;5.32;;
76380;SDS011;65202;52.520;10.528;2023-07-24T10:41:06;9.20;;;6.10;;
76380;SDS011;65202;52.520;10.528;2023-07-24T10:46:17;7.60;;;5.95;;
76380;SDS011;65202;52.520;10.528;2023-07-24T10:48:48;9.23;;;8.23;;
76380;SDS011;65202;52.520;10.528;2023-07-24T10:51:17;9.27;;;6.10;;
76380;SDS011;65202;52.520;10.528;2023-07-24T10:53:48;7.22;;;4.95;;
76380;SDS011;65202;52.520;10.528;2023-07-24T10:56:16;6.60;;;5.20;;
76380;SDS011;65202;52.520;10.528;2023-07-24T10:58:44;6.85;;;6.00;;
76380;SDS011;65202;52.520;10.528;2023-07-24T11:01:11;8.90;;;7.65;;
76380;SDS011;65202;52.520;10.528;2023-07-24T11:03:40;6.30;;;5.53;;
76380;SDS011;65202;52.520;10.528;2023-07-24T11:06:12;7.50;;;5.60;;
76380;SDS011;65202;52.520;10.528;2023-07-24T11:08:42;5.80;;;5.18;;
76380;SDS011;65202;52.520;10.528;2023-07-24T11:11:18;6.80;;;5.85;;
76380;SDS011;65202;52.520;10.528;2023-07-24T11:13:45;7.63;;;5.63;;
76380;SDS011;65202;52.520;10.528;2023-07-24T11:16:12;11.40;;;7.30;;
76380;SDS011;65202;52.520;10.528;2023-07-24T11:18:46;11.50;;;8.32;;
76380;SDS011;65202;52.520;10.528;2023-07-24T11:21:24;7.00;;;5.18;;
76380;SDS011;65202;52.520;10.528;2023-07-24T11:23:52;5.50;;;4.72;;
76380;SDS011;65202;52.520;10.528;2023-07-24T11:26:22;6.93;;;4.68;;
76380;SDS011;65202;52.520;10.528;2023-07-24T11:28:52;6.25;;;4.32;;
76380;SDS011;65202;52.520;10.528;2023-07-24T11:31:20;7.82;;;4.70;;
76380;SDS011;65202;52.520;10.528;2023-07-24T11:33:48;4.82;;;4.18;;
76380;SDS011;65202;52.520;10.528;2023-07-24T11:36:17;4.90;;;4.25;;
76380;SDS011;65202;52.520;10.528;2023-07-24T11:38:47;5.15;;;4.65;;
76380;SDS011;65202;52.520;10.528;2023-07-24T11:41:16;4.75;;;4.32;;
76380;SDS011;65202;52.520;10.528;2023-07-24T11:43:48;8.85;;;6.35;;
76380;SDS011;65202;52.520;10.528;2023-07-24T11:46:27;4.85;;;4.18;;
76380;SDS011;65202;52.520;10.528;2023-07-24T11:48:59;5.40;;;3.90;;
76380;SDS011;65202;52.520;10.528;2023-07-24T11:51:26;6.18;;;4.00;;
76380;SDS011;65202;52.520;10.528;2023-07-24T11:54:08;4.47;;;3.83;;
76380;SDS011;65202;52.520;10.528;2023-07-24T11:56:39;7.03;;;3.90;;
76380;SDS011;65202;52.520;10.528;2023-07-24T11:59:13;4.45;;;4.05;;
76380;SDS011;65202;52.520;10.528;2023-07-24T12:01:45;7.35;;;4.22;;
76380;SDS011;65202;52.520;10.528;2023-07-24T12:04:15;4.43;;;3.83;;
76380;SDS011;65202;52.520;10.528;2023-07-24T12:06:43;5.45;;;4.00;;
76380;SDS011;65202;52.520;10.528;2023-07-24T12:09:11;8.00;;;5.53;;
76380;SDS011;65202;52.520;10.528;2023-07-24T12:11:39;8.50;;;5.25;;
76380;SDS011;65202;52.520;10.528;2023-07-24T12:16:40;4.20;;;3.80;;
76380;SDS011;65202;52.520;10.528;2023-07-24T12:19:07;5.78;;;3.95;;
76380;SDS011;65202;52.520;10.528;2023-07-24T12:21:34;5.22;;;3.90;;
76380;SDS011;65202;52.520;10.528;2023-07-24T12:24:02;4.68;;;3.83;;
76380;SDS011;65202;52.520;10.528;2023-07-24T12:26:29;4.40;;;3.58;;
76380;SDS011;65202;52.520;10.528;2023-07-24T12:28:56;4.50;;;3.90;;
76380;SDS011;65202;52.520;10.528;2023-07-24T12:31:26;5.60;;;4.03;;
76380;SDS011;65202;52.520;10.528;2023-07-24T12:33:54;6.15;;;2.90;;
76380;SDS011;65202;52.520;10.528;2023-07-24T12:36:21;2.40;;;2.17;;
76380;SDS011;65202;52.520;10.528;2023-07-24T12:38:48;2.88;;;1.70;;
76380;SDS011;65202;52.520;10.528;2023-07-24T12:41:16;1.95;;;1.77;;
76380;SDS011;65202;52.520;10.528;2023-07-24T12:43:43;4.05;;;1.90;;
76380;SDS011;65202;52.520;10.528;2023-07-24T12:46:11;3.60;;;2.00;;
76380;SDS011;65202;52.520;10.528;2023-07-24T12:48:39;2.97;;;2.10;;
76380;SDS011;65202;52.520;10.528;2023-07-24T12:51:06;4.55;;;2.20;;
76380;SDS011;65202;52.520;10.528;2023-07-24T12:53:33;3.60;;;2.25;;
76380;SDS011;65202;52.520;10.528;2023-07-24T12:56:16;3.95;;;2.50;;
76380;SDS011;65202;52.520;10.528;2023-07-24T12:58:43;3.78;;;2.60;;
76380;SDS011;65202;52.520;10.528;2023-07-24T13:01:11;3.65;;;2.67;;
76380;SDS011;65202;52.520;10.528;2023-07-24T13:03:38;4.30;;;2.40;;
76380;SDS011;65202;52.520;10.528;2023-07-24T13:06:05;2.20;;;2.00;;
76380;SDS011;65202;52.520;10.528;2023-07-24T13:08:32;3.58;;;2.30;;
76380;SDS011;65202;52.520;10.528;2023-07-24T13:11:00;2.65;;;2.10;;
76380;SDS011;65202;52.520;10.528;2023-07-24T13:13:27;3.30;;;2.95;;
76380;SDS011;65202;52.520;10.528;2023-07-24T13:15:54;3.30;;;2.50;;
76380;SDS011;65202;52.520;10.528;2023-07-24T13:18:22;5.13;;;3.20;;
76380;SDS011;65202;52.520;10.528;2023-07-24T13:20:56;5.43;;;3.00;;
76380;SDS011;65202;52.520;10.528;2023-07-24T13:23:23;3.58;;;3.28;;
76380;SDS011;65202;52.520;10.528;2023-07-24T13:25:52;6.32;;;3.20;;
76380;SDS011;65202;52.520;10.528;2023-07-24T13:28:19;7.32;;;3.70;;
76380;SDS011;65202;52.520;10.528;2023-07-24T13:30:47;5.22;;;3.92;;
76380;SDS011;65202;52.520;10.528;2023-07-24T13:33:14;4.57;;;4.05;;
76380;SDS011;65202;52.520;10.528;2023-07-24T13:35:42;6.30;;;4.22;;
76380;SDS011;65202;52.520;10.528;2023-07-24T13:38:10;4.95;;;4.43;;
76380;SDS011;65202;52.520;10.528;2023-07-24T13:40:38;6.68;;;5.05;;
76380;SDS011;65202;52.520;10.528;2023-07-24T13:43:05;5.72;;;5.13;;
76380;SDS011;65202;52.520;10.528;2023-07-24T13:45:32;5.15;;;4.32;;
76380;SDS011;65202;52.520;10.528;2023-07-24T13:48:00;6.15;;;5.18;;
76380;SDS011;65202;52.520;10.528;2023-07-24T13:50:27;5.88;;;5.15;;
76380;SDS011;65202;52.520;10.528;2023-07-24T13:52:54;5.50;;;4.70;;
76380;SDS011;65202;52.520;10.528;2023-07-24T13:55:22;5.25;;;4.53;;
76380;SDS011;65202;52.520;10.528;2023-07-24T13:57:49;8.32;;;4.72;;
76380;SDS011;65202;52.520;10.528;2023-07-24T14:00:16;6.88;;;5.03;;
76380;SDS011;65202;52.520;10.528;2023-07-24T14:02:44;5.40;;;4.60;;
76380;SDS011;65202;52.520;10.528;2023-07-24T14:05:11;6.30;;;4.93;;
76380;SDS011;65202;52.520;10.528;2023-07-24T14:07:39;4.75;;;4.32;;
76380;SDS011;65202;52.520;10.528;2023-07-24T14:10:06;7.38;;;5.80;;
76380;SDS011;65202;52.520;10.528;2023-07-24T14:12:34;4.72;;;3.72;;
76380;SDS011;65202;52.520;10.528;2023-07-24T14:15:02;6.97;;;3.90;;
76380;SDS011;65202;52.520;10.528;2023-07-24T14:17:30;4.00;;;3.60;;
76380;SDS011;65202;52.520;10.528;2023-07-24T14:19:57;4.47;;;4.07;;
76380;SDS011;65202;52.520;10.528;2023-07-24T14:22:24;5.25;;;4.30;;
76380;SDS011;65202;52.520;10.528;2023-07-24T14:24:54;6.13;;;4.32;;
76380;SDS011;65202;52.520;10.528;2023-07-24T14:27:21;6.80;;;6.03;;
76380;SDS011;65202;52.520;10.528;2023-07-24T14:29:49;5.78;;;5.15;;
76380;SDS011;65202;52.520;10.528;2023-07-24T14:32:16;5.00;;;4.40;;
76380;SDS011;65202;52.520;10.528;2023-07-24T14:34:43;4.95;;;4.43;;
76380;SDS011;65202;52.520;10.528;2023-07-24T14:37:10;4.47;;;3.95;;
76380;SDS011;65202;52.520;10.528;2023-07-24T14:39:38;6.00;;;4.68;;
76380;SDS011;65202;52.520;10.528;2023-07-24T14:42:05;7.25;;;4.38;;
76380;SDS011;65202;52.520;10.528;2023-07-24T14:44:32;5.60;;;4.20;;
76380;SDS011;65202;52.520;10.528;2023-07-24T14:46:59;4.57;;;4.05;;
76380;SDS011;65202;52.520;10.528;2023-07-24T14:49:27;6.03;;;5.15;;
76380;SDS011;65202;52.520;10.528;2023-07-24T14:51:54;4.93;;;4.00;;